createdAt,value
2019-01-09T00:01:52.468Z,98937.84
2019-01-09T00:03:45.297Z,98941.73
2019-01-09T00:05:38.349Z,98940.46
2019-01-09T00:07:32.575Z,98947.38
2019-01-09T00:09:25.445Z,98947.35
2019-01-09T00:11:18.786Z,98946.50
2019-01-09T00:13:12.117Z,98944.41
2019-01-09T00:15:05.667Z,98951.33
2019-01-09T00:16:58.547Z,98950.50
2019-01-09T00:18:51.567Z,98950.91
2019-01-09T00:20:44.868Z,98948.33
2019-01-09T00:22:37.839Z,98944.94
2019-01-09T00:24:30.896Z,98955.77
2019-01-09T00:26:24.039Z,98960.52
2019-01-09T00:28:16.930Z,98958.72
2019-01-09T00:30:10.053Z,98961.25
2019-01-09T00:32:02.890Z,98963.84
2019-01-09T00:33:56.066Z,98965.70
2019-01-09T00:35:49.046Z,98969.58
2019-01-09T00:37:41.912Z,98961.78
2019-01-09T00:39:34.881Z,98973.79
2019-01-09T00:41:27.750Z,98968.28
2019-01-09T00:43:21.019Z,98968.28
2019-01-09T00:45:14.226Z,98973.82
2019-01-09T00:47:08.645Z,98977.77
2019-01-09T00:49:01.885Z,98982.53
2019-01-09T00:50:55.761Z,98982.53
2019-01-09T00:52:48.877Z,98980.88
2019-01-09T00:54:41.707Z,98987.30
2019-01-09T00:56:34.754Z,98983.91
2019-01-09T00:58:27.663Z,98982.63
2019-01-09T01:00:21.369Z,98988.74
2019-01-09T01:03:09.206Z,98986.59
2019-01-09T01:06:25.088Z,98991.86
2019-01-09T01:09:08.970Z,98995.77
2019-01-09T01:11:55.320Z,98993.63
2019-01-09T01:15:17.041Z,99000.66
2019-01-09T01:17:59.652Z,99004.56
2019-01-09T01:20:32.452Z,99009.72
2019-01-09T01:23:24.232Z,99007.23
2019-01-09T01:26:10.479Z,99017.95
2019-01-09T01:28:13.960Z,99015.72
2019-01-09T01:31:21.356Z,99015.28
2019-01-09T01:33:54.140Z,99022.25
2019-01-09T01:37:22.940Z,99022.72
2019-01-09T01:40:25.213Z,99034.84
2019-01-09T01:43:19.863Z,99028.48
2019-01-09T01:46:39.983Z,99031.95
2019-01-09T01:49:24.250Z,99038.42
2019-01-09T01:51:53.433Z,99039.41
2019-01-09T01:54:51.829Z,99042.05
2019-01-09T01:57:42.957Z,99044.70
2019-01-09T02:00:13.107Z,99048.22
2019-01-09T02:03:13.600Z,99043.91
2019-01-09T02:05:21.543Z,99058.94
2019-01-09T02:08:10.677Z,99053.78
2019-01-09T02:11:14.477Z,99054.18
2019-01-09T02:14:09.280Z,99054.98
2019-01-09T02:17:23.071Z,99057.98
2019-01-09T02:19:38.838Z,99058.34
2019-01-09T02:22:43.014Z,99060.49
2019-01-09T02:25:37.364Z,99070.35
2019-01-09T02:28:03.715Z,99065.59
2019-01-09T02:30:54.475Z,99064.73
2019-01-09T02:32:47.313Z,99069.03
2019-01-09T02:34:40.245Z,99073.30
2019-01-09T02:36:33.304Z,99072.00
2019-01-09T02:38:26.381Z,99075.09
2019-01-09T02:40:19.903Z,99079.47
2019-01-09T02:42:13.063Z,99079.41
2019-01-09T02:44:05.760Z,99076.39
2019-01-09T02:45:58.423Z,99074.75
2019-01-09T02:47:51.791Z,99080.79
2019-01-09T02:49:45.072Z,99074.75
2019-01-09T02:51:38.196Z,99076.88
2019-01-09T02:53:31.290Z,99079.05
2019-01-09T02:55:24.236Z,99082.09
2019-01-09T02:57:17.086Z,99073.46
2019-01-09T02:59:09.849Z,99073.00
2019-01-09T03:01:02.679Z,99076.83
2019-01-09T03:02:57.421Z,99074.66
2019-01-09T03:04:50.340Z,99078.04
2019-01-09T03:06:43.314Z,99075.87
2019-01-09T03:08:36.844Z,99075.43
2019-01-09T03:10:29.925Z,99075.95
2019-01-09T03:12:23.724Z,99083.28
2019-01-09T03:14:16.596Z,99085.02
2019-01-09T03:16:11.031Z,99084.13
2019-01-09T03:18:03.806Z,99078.98
2019-01-09T03:19:57.446Z,99085.45
2019-01-09T03:21:50.485Z,99086.77
2019-01-09T03:23:43.536Z,99088.48
2019-01-09T03:25:36.604Z,99088.48
2019-01-09T03:27:30.051Z,99085.97
2019-01-09T03:29:23.249Z,99090.27
2019-01-09T03:31:16.110Z,99088.56
2019-01-09T03:33:09.173Z,99087.68
2019-01-09T03:35:02.651Z,99094.09
2019-01-09T03:36:55.508Z,99094.08
2019-01-09T03:38:48.277Z,99097.08
2019-01-09T03:40:41.365Z,99098.38
2019-01-09T03:42:34.264Z,99103.94
2019-01-09T03:44:27.264Z,99108.19
2019-01-09T03:46:20.209Z,99106.95
2019-01-09T03:48:13.059Z,99110.34
2019-01-09T03:50:07.718Z,99114.20
2019-01-09T03:52:00.918Z,99115.05
2019-01-09T03:53:54.158Z,99116.37
2019-01-09T03:55:47.290Z,99122.41
2019-01-09T03:57:40.311Z,99118.52
2019-01-09T03:59:33.608Z,99119.84
2019-01-09T04:01:27.315Z,99125.44
2019-01-09T04:03:20.410Z,99125.02
2019-01-09T04:05:13.409Z,99124.56
2019-01-09T04:07:06.768Z,99128.86
2019-01-09T04:09:00.020Z,99126.73
2019-01-09T04:10:52.822Z,99130.70
2019-01-09T04:12:45.541Z,99134.58
2019-01-09T04:14:38.252Z,99141.49
2019-01-09T04:16:33.012Z,99140.20
2019-01-09T04:18:25.880Z,99143.62
2019-01-09T04:20:18.864Z,99140.56
2019-01-09T04:22:11.632Z,99147.95
2019-01-09T04:24:04.818Z,99142.34
2019-01-09T04:25:57.697Z,99147.89
2019-01-09T04:27:50.629Z,99152.19
2019-01-09T04:29:43.827Z,99151.70
2019-01-09T04:31:37.383Z,99154.29
2019-01-09T04:33:31.395Z,99153.05
2019-01-09T04:35:24.534Z,99158.67
2019-01-09T04:37:17.263Z,99154.36
2019-01-09T04:39:10.393Z,99153.07
2019-01-09T04:41:04.016Z,99156.52
2019-01-09T04:42:56.842Z,99165.14
2019-01-09T04:44:49.831Z,99158.67
2019-01-09T04:46:44.672Z,99158.64
2019-01-09T04:48:37.519Z,99166.36
2019-01-09T04:50:31.125Z,99165.13
2019-01-09T04:52:25.615Z,99171.59
2019-01-09T04:54:18.620Z,99178.02
2019-01-09T04:56:11.660Z,99178.51
2019-01-09T04:58:04.795Z,99178.07
2019-01-09T04:59:57.719Z,99180.24
2019-01-09T05:01:52.062Z,99181.98
2019-01-09T05:03:44.769Z,99186.28
2019-01-09T05:05:37.970Z,99195.34
2019-01-09T05:07:31.340Z,99194.48
2019-01-09T05:09:24.353Z,99197.88
2019-01-09T05:11:17.316Z,99203.06
2019-01-09T05:15:11.521Z,99206.51
2019-01-09T05:17:04.459Z,99209.53
2019-01-09T05:18:57.397Z,99212.96
2019-01-09T05:20:53.186Z,99218.14
2019-01-09T05:22:46.296Z,99216.37
2019-01-09T05:24:39.710Z,99218.14
2019-01-09T05:26:32.673Z,99225.08
2019-01-09T05:28:25.682Z,99220.41
2019-01-09T05:30:19.276Z,99226.03
2019-01-09T05:32:12.168Z,99227.33
2019-01-09T05:34:05.847Z,99230.41
2019-01-09T05:35:59.201Z,99235.64
2019-01-09T05:37:52.124Z,99241.25
2019-01-09T05:39:44.966Z,99239.96
2019-01-09T05:41:37.767Z,99239.52
2019-01-09T05:43:31.077Z,99245.52
2019-01-09T05:45:23.884Z,99245.58
2019-01-09T05:47:16.824Z,99249.09
2019-01-09T05:49:10.282Z,99246.09
2019-01-09T05:51:03.609Z,99256.02
2019-01-09T05:52:56.374Z,99258.98
2019-01-09T05:54:49.304Z,99258.16
2019-01-09T05:56:42.101Z,99258.18
2019-01-09T05:58:35.694Z,99268.95
2019-01-09T06:00:28.699Z,99267.66
2019-01-09T06:02:22.082Z,99270.34
2019-01-09T06:04:15.915Z,99274.23
2019-01-09T06:06:09.167Z,99277.30
2019-01-09T06:08:02.028Z,99276.03
2019-01-09T06:09:55.179Z,99281.62
2019-01-09T06:11:48.286Z,99284.63
2019-01-09T06:13:41.275Z,99286.16
2019-01-09T06:15:34.085Z,99288.24
2019-01-09T06:17:26.865Z,99299.31
2019-01-09T06:19:20.315Z,99292.75
2019-01-09T06:21:13.193Z,99301.53
2019-01-09T06:23:06.174Z,99298.83
2019-01-09T06:24:59.461Z,99300.64
2019-01-09T06:26:53.040Z,99303.16
2019-01-09T06:28:47.180Z,99308.44
2019-01-09T06:30:40.101Z,99309.20
2019-01-09T06:32:33.071Z,99308.87
2019-01-09T06:34:26.090Z,99316.11
2019-01-09T06:36:19.111Z,99322.14
2019-01-09T06:38:12.179Z,99323.73
2019-01-09T06:40:05.790Z,99330.46
2019-01-09T06:41:58.740Z,99334.20
2019-01-09T06:43:51.790Z,99338.73
2019-01-09T06:45:44.633Z,99335.88
2019-01-09T06:47:37.750Z,99351.91
2019-01-09T06:49:30.749Z,99349.83
2019-01-09T06:51:23.836Z,99358.91
2019-01-09T06:53:17.392Z,99363.28
2019-01-09T06:55:10.424Z,99362.48
2019-01-09T06:57:03.678Z,99363.64
2019-01-09T06:58:56.855Z,99369.13
2019-01-09T07:00:49.616Z,99370.87
2019-01-09T07:02:42.757Z,99379.47
2019-01-09T07:04:35.641Z,99372.82
2019-01-09T07:06:28.819Z,99376.78
2019-01-09T07:08:21.456Z,99389.41
2019-01-09T07:10:14.506Z,99389.20
2019-01-09T07:12:07.774Z,99391.56
2019-01-09T07:14:01.082Z,99392.84
2019-01-09T07:15:54.389Z,99392.71
2019-01-09T07:17:47.113Z,99394.66
2019-01-09T07:19:40.089Z,99399.79
2019-01-09T07:21:33.138Z,99406.25
2019-01-09T07:23:26.611Z,99404.91
2019-01-09T07:25:19.402Z,99408.49
2019-01-09T07:27:12.845Z,99414.20
2019-01-09T07:29:05.581Z,99416.56
2019-01-09T07:30:59.388Z,99421.45
2019-01-09T07:32:53.936Z,99424.56
2019-01-09T07:34:46.752Z,99434.12
2019-01-09T07:36:39.468Z,99436.85
2019-01-09T07:38:32.479Z,99433.47
2019-01-09T07:40:27.214Z,99439.99
2019-01-09T07:42:20.532Z,99447.83
2019-01-09T07:44:13.513Z,99449.63
2019-01-09T07:46:06.984Z,99455.22
2019-01-09T07:47:59.912Z,99456.47
2019-01-09T07:49:53.026Z,99457.33
2019-01-09T07:51:46.023Z,99463.38
2019-01-09T07:53:38.895Z,99467.61
2019-01-09T07:55:31.552Z,99464.96
2019-01-09T07:57:24.453Z,99473.06
2019-01-09T07:59:17.633Z,99473.54
2019-01-09T08:01:10.647Z,99481.31
2019-01-09T08:03:03.657Z,99485.63
2019-01-09T08:04:56.624Z,99489.08
2019-01-09T08:06:49.702Z,99489.08
2019-01-09T08:08:42.824Z,99493.34
2019-01-09T08:10:36.165Z,99500.73
2019-01-09T08:12:28.862Z,99500.27
2019-01-09T08:14:22.088Z,99505.01
2019-01-09T08:16:16.757Z,99506.79
2019-01-09T08:18:09.666Z,99508.53
2019-01-09T08:20:02.721Z,99517.60
2019-01-09T08:21:55.825Z,99518.07
2019-01-09T08:23:51.755Z,99522.27
2019-01-09T08:25:44.722Z,99534.35
2019-01-09T08:27:37.681Z,99535.66
2019-01-09T08:29:32.136Z,99540.42
2019-01-09T08:31:24.938Z,99540.41
2019-01-09T08:33:19.054Z,99548.73
2019-01-09T08:35:12.253Z,99545.34
2019-01-09T08:37:07.103Z,99554.42
2019-01-09T08:39:00.142Z,99559.65
2019-01-09T08:40:53.021Z,99557.93
2019-01-09T08:42:46.092Z,99563.10
2019-01-09T08:44:38.927Z,99572.11
2019-01-09T08:46:32.217Z,99569.52
2019-01-09T08:48:25.177Z,99578.27
2019-01-09T08:50:17.982Z,99585.17
2019-01-09T08:52:11.011Z,99586.48
2019-01-09T08:54:03.991Z,99590.80
2019-01-09T08:55:56.936Z,99598.19
2019-01-09T08:57:49.981Z,99603.81
2019-01-09T08:59:42.970Z,99606.89
2019-01-09T09:01:36.181Z,99615.09
2019-01-09T09:03:29.051Z,99618.59
2019-01-09T09:05:22.022Z,99622.09
2019-01-09T09:07:17.588Z,99621.24
2019-01-09T09:09:10.894Z,99634.19
2019-01-09T09:11:04.003Z,99629.10
2019-01-09T09:12:57.036Z,99637.25
2019-01-09T09:14:49.926Z,99639.86
2019-01-09T09:16:42.703Z,99643.36
2019-01-09T09:18:35.533Z,99646.87
2019-01-09T09:20:28.492Z,99649.02
2019-01-09T09:22:22.367Z,99646.00
2019-01-09T09:24:15.296Z,99650.84
2019-01-09T09:26:08.326Z,99657.27
2019-01-09T09:28:01.569Z,99656.83
2019-01-09T09:29:54.407Z,99664.17
2019-01-09T09:31:47.676Z,99661.16
2019-01-09T09:33:40.738Z,99668.02
2019-01-09T09:35:33.583Z,99663.31
2019-01-09T09:37:26.640Z,99671.90
2019-01-09T09:39:19.741Z,99676.69
2019-01-09T09:41:12.583Z,99674.96
2019-01-09T09:43:05.846Z,99686.19
2019-01-09T09:44:58.573Z,99686.67
2019-01-09T09:46:51.888Z,99694.43
2019-01-09T09:48:44.798Z,99690.59
2019-01-09T09:50:37.595Z,99703.11
2019-01-09T09:52:30.316Z,99702.72
2019-01-09T09:54:26.494Z,99703.20
2019-01-09T09:56:20.847Z,99713.17
2019-01-09T09:58:14.124Z,99711.44
2019-01-09T10:00:09.387Z,99717.44
2019-01-09T10:02:02.325Z,99718.73
2019-01-09T10:03:55.306Z,99719.56
2019-01-09T10:05:48.428Z,99726.02
2019-01-09T10:07:41.346Z,99728.61
2019-01-09T10:09:34.014Z,99724.73
2019-01-09T10:11:27.313Z,99729.44
2019-01-09T10:13:21.275Z,99732.89
2019-01-09T10:15:14.541Z,99741.52
2019-01-09T10:17:07.325Z,99737.20
2019-01-09T10:19:00.267Z,99742.34
2019-01-09T10:20:54.391Z,99745.74
2019-01-09T10:22:47.640Z,99751.78
2019-01-09T10:24:40.803Z,99751.44
2019-01-09T10:26:33.756Z,99754.08
2019-01-09T10:28:27.208Z,99762.27
2019-01-09T10:30:21.117Z,99767.05
2019-01-09T10:32:14.078Z,99765.37
2019-01-09T10:34:08.628Z,99774.87
2019-01-09T10:36:01.736Z,99768.39
2019-01-09T10:37:54.358Z,99776.20
2019-01-09T10:39:47.586Z,99771.84
2019-01-09T10:41:40.812Z,99777.03
2019-01-09T10:43:34.676Z,99783.54
2019-01-09T10:45:28.188Z,99782.25
2019-01-09T10:47:22.788Z,99784.01
2019-01-09T10:49:15.476Z,99781.03
2019-01-09T10:51:08.322Z,99784.95
2019-01-09T10:53:01.181Z,99781.47
2019-01-09T10:54:56.104Z,99793.58
2019-01-09T10:56:49.059Z,99795.78
2019-01-09T10:58:41.985Z,99798.80
2019-01-09T11:00:35.144Z,99797.54
2019-01-09T11:02:28.272Z,99803.07
2019-01-09T11:04:21.276Z,99804.72
2019-01-09T11:06:14.690Z,99809.89
2019-01-09T11:08:07.963Z,99809.03
2019-01-09T11:10:00.867Z,99810.28
2019-01-09T11:11:54.137Z,99808.20
2019-01-09T11:13:47.096Z,99807.45
2019-01-09T11:15:40.237Z,99813.46
2019-01-09T11:17:33.322Z,99821.69
2019-01-09T11:19:26.685Z,99827.30
2019-01-09T11:21:19.598Z,99824.71
2019-01-09T11:23:12.705Z,99821.66
2019-01-09T11:25:06.553Z,99822.09
2019-01-09T11:26:59.518Z,99828.16
2019-01-09T11:28:52.361Z,99835.89
2019-01-09T11:30:45.971Z,99834.20
2019-01-09T11:32:39.302Z,99834.02
2019-01-09T11:34:32.378Z,99840.02
2019-01-09T11:36:25.677Z,99831.81
2019-01-09T11:38:18.453Z,99836.09
2019-01-09T11:40:12.921Z,99843.51
2019-01-09T11:42:06.924Z,99844.33
2019-01-09T11:43:59.761Z,99850.69
2019-01-09T11:45:53.758Z,99845.12
2019-01-09T11:47:46.432Z,99855.16
2019-01-09T11:49:39.786Z,99857.42
2019-01-09T11:51:32.962Z,99855.77
2019-01-09T11:53:25.893Z,99863.10
2019-01-09T11:55:18.746Z,99861.84
2019-01-09T11:57:18.864Z,99864.50
2019-01-09T11:59:21.718Z,99867.95
2019-01-09T12:01:21.375Z,99870.97
2019-01-09T12:03:21.707Z,99869.27
2019-01-09T12:05:24.813Z,99874.05
2019-01-09T12:07:25.689Z,99877.47
2019-01-09T12:09:25.238Z,99877.03
2019-01-09T12:11:26.408Z,99885.23
2019-01-09T12:13:25.492Z,99884.89
2019-01-09T12:15:28.064Z,99893.55
2019-01-09T12:17:26.946Z,99895.77
2019-01-09T12:19:20.737Z,99894.03
2019-01-09T12:21:16.723Z,99903.92
2019-01-09T12:23:09.195Z,99905.67
2019-01-09T12:25:02.372Z,99911.25
2019-01-09T12:26:56.168Z,99921.20
2019-01-09T12:28:53.573Z,99917.74
2019-01-09T12:30:43.799Z,99924.21
2019-01-09T12:32:38.310Z,99927.23
2019-01-09T12:34:31.597Z,99925.94
2019-01-09T12:36:24.817Z,99929.87
2019-01-09T12:38:17.765Z,99935.09
2019-01-09T12:40:10.924Z,99941.59
2019-01-09T12:42:03.797Z,99946.78
2019-01-09T12:43:56.911Z,99952.36
2019-01-09T12:45:49.978Z,99951.49
2019-01-09T12:47:42.747Z,99960.57
2019-01-09T12:49:35.746Z,99967.09
2019-01-09T12:51:29.138Z,99977.47
2019-01-09T12:53:23.117Z,99975.33
2019-01-09T12:55:16.036Z,99983.48
2019-01-09T12:57:09.389Z,99981.77
2019-01-09T12:59:02.037Z,99991.27
2019-01-09T13:00:54.975Z,99999.91
2019-01-09T13:02:48.075Z,99995.61
2019-01-09T13:04:42.656Z,100000.80
2019-01-09T13:06:35.673Z,100002.95
2019-01-09T13:08:28.651Z,100005.12
2019-01-09T13:10:23.057Z,100006.41
2019-01-09T13:12:16.156Z,100018.94
2019-01-09T13:14:12.443Z,100018.53
2019-01-09T13:16:11.737Z,100024.58
2019-01-09T13:18:06.047Z,100029.74
2019-01-09T13:19:59.397Z,100027.19
2019-01-09T13:21:56.261Z,100035.79
2019-01-09T13:23:50.355Z,100028.92
2019-01-09T13:25:44.984Z,100037.52
2019-01-09T13:27:38.133Z,100038.40
2019-01-09T13:29:31.495Z,100047.89
2019-01-09T13:31:24.788Z,100048.76
2019-01-09T13:33:18.017Z,100061.66
2019-01-09T13:35:11.636Z,100057.79
2019-01-09T13:37:04.799Z,100055.20
2019-01-09T13:38:58.755Z,100063.82
2019-01-09T13:40:51.843Z,100062.09
2019-01-09T13:42:45.115Z,100062.95
2019-01-09T13:44:38.012Z,100068.13
2019-01-09T13:46:31.010Z,100068.13
2019-01-09T13:48:24.136Z,100069.86
2019-01-09T13:50:18.820Z,100074.59
2019-01-09T13:52:11.666Z,100078.89
2019-01-09T13:54:06.099Z,100080.20
2019-01-09T13:55:59.069Z,100089.22
2019-01-09T13:57:52.595Z,100082.34
2019-01-09T13:59:45.301Z,100093.97
2019-01-09T14:01:38.579Z,100092.25
2019-01-09T14:03:31.729Z,100102.58
2019-01-09T14:05:24.914Z,100107.30
2019-01-09T14:07:17.934Z,100109.03
2019-01-09T14:09:12.546Z,100112.47
2019-01-09T14:11:05.936Z,100119.38
2019-01-09T14:13:00.193Z,100120.23
2019-01-09T14:14:53.880Z,100128.84
2019-01-09T14:16:47.991Z,100130.12
2019-01-09T14:18:41.465Z,100134.89
2019-01-09T14:20:34.762Z,100131.44
2019-01-09T14:22:32.919Z,100141.33
2019-01-09T14:24:22.744Z,100145.64
2019-01-09T14:26:15.945Z,100148.23
2019-01-09T14:28:08.882Z,100152.95
2019-01-09T14:30:01.912Z,100148.23
2019-01-09T14:31:55.115Z,100156.84
2019-01-09T14:33:48.275Z,100162.00
2019-01-09T14:35:41.644Z,100164.59
2019-01-09T14:37:34.943Z,100165.45
2019-01-09T14:39:27.995Z,100171.92
2019-01-09T14:41:22.554Z,100171.47
2019-01-09T14:43:16.414Z,100173.63
2019-01-09T14:45:11.293Z,100179.23
2019-01-09T14:47:05.524Z,100178.34
2019-01-09T14:48:59.731Z,100183.11
2019-01-09T14:50:53.957Z,100188.69
2019-01-09T14:52:49.464Z,100197.73
2019-01-09T14:54:43.399Z,100197.72
2019-01-09T14:56:37.373Z,100207.20
2019-01-09T14:58:30.544Z,100208.91
2019-01-09T15:00:26.866Z,100207.63
2019-01-09T15:02:19.765Z,100212.36
2019-01-09T15:04:13.486Z,100220.11
2019-01-09T15:06:06.524Z,100214.92
2019-01-09T15:08:00.366Z,100226.97
2019-01-09T15:09:56.722Z,100228.72
2019-01-09T15:11:49.116Z,100239.90
2019-01-09T15:13:42.642Z,100229.99
2019-01-09T15:15:36.394Z,100242.46
2019-01-09T15:17:30.194Z,100238.58
2019-01-09T15:19:23.522Z,100245.92
2019-01-09T15:21:17.434Z,100249.80
2019-01-09T15:23:11.105Z,100254.07
2019-01-09T15:25:06.254Z,100257.09
2019-01-09T15:27:02.709Z,100255.36
2019-01-09T15:28:57.200Z,100266.98
2019-01-09T15:30:52.412Z,100266.10
2019-01-09T15:32:47.073Z,100269.11
2019-01-09T15:34:41.725Z,100269.12
2019-01-09T15:36:36.435Z,100275.99
2019-01-09T15:38:45.342Z,100274.70
2019-01-09T15:40:40.281Z,100279.86
2019-01-09T15:42:34.807Z,100285.00
2019-01-09T15:44:28.776Z,100281.99
2019-01-09T15:46:24.139Z,100286.29
2019-01-09T15:48:19.232Z,100290.63
2019-01-09T15:50:16.276Z,100294.47
2019-01-09T15:52:10.434Z,100303.50
2019-01-09T15:54:05.822Z,100302.64
2019-01-09T15:56:00.405Z,100304.79
2019-01-09T15:57:54.446Z,100310.39
2019-01-09T15:59:49.734Z,100304.77
2019-01-09T16:01:43.672Z,100316.82
2019-01-09T16:03:43.986Z,100318.55
2019-01-09T16:05:43.372Z,100316.38
2019-01-09T16:07:37.685Z,100327.14
2019-01-09T16:09:32.632Z,100328.43
2019-01-09T16:11:27.782Z,100334.46
2019-01-09T16:13:22.223Z,100337.48
2019-01-09T16:15:17.755Z,100346.51
2019-01-09T16:17:12.050Z,100346.48
2019-01-09T16:19:05.895Z,100352.08
2019-01-09T16:21:00.676Z,100347.32
2019-01-09T16:22:55.422Z,100359.81
2019-01-09T16:24:51.795Z,100369.67
2019-01-09T16:26:47.187Z,100367.49
2019-01-09T16:28:41.387Z,100369.66
2019-01-09T16:30:45.158Z,100370.94
2019-01-09T16:32:39.195Z,100382.97
2019-01-09T16:34:33.154Z,100379.12
2019-01-09T16:36:29.174Z,100389.02
2019-01-09T16:38:23.203Z,100386.86
2019-01-09T16:40:23.363Z,100391.19
2019-01-09T16:42:13.126Z,100396.36
2019-01-09T16:44:07.088Z,100405.35
2019-01-09T16:46:01.009Z,100404.91
2019-01-09T16:47:55.383Z,100412.66
2019-01-09T16:49:49.605Z,100406.23
2019-01-09T16:51:43.921Z,100415.70
2019-01-09T16:53:37.903Z,100410.98
2019-01-09T16:55:33.474Z,100422.17
2019-01-09T16:57:27.955Z,100422.60
2019-01-09T16:59:22.234Z,100436.77
2019-01-09T17:01:16.745Z,100432.89
2019-01-09T17:03:11.066Z,100430.73
2019-01-09T17:05:04.977Z,100431.55
2019-01-09T17:07:00.094Z,100445.72
2019-01-09T17:08:53.994Z,100446.13
2019-01-09T17:10:47.983Z,100449.16
2019-01-09T17:12:42.082Z,100449.14
2019-01-09T17:14:37.995Z,100449.55
2019-01-09T17:16:37.681Z,100451.70
2019-01-09T17:18:31.944Z,100455.98
2019-01-09T17:20:26.662Z,100455.57
2019-01-09T17:22:20.894Z,100457.27
2019-01-09T17:24:15.134Z,100467.56
2019-01-09T17:26:09.595Z,100469.27
2019-01-09T17:28:03.437Z,100472.25
2019-01-09T17:29:58.105Z,100476.12
2019-01-09T17:31:52.365Z,100473.97
2019-01-09T17:33:46.335Z,100479.09
2019-01-09T17:35:40.456Z,100482.17
2019-01-09T17:37:34.445Z,100485.22
2019-01-09T17:39:28.502Z,100483.45
2019-01-09T17:41:22.565Z,100485.56
2019-01-09T17:43:16.491Z,100488.08
2019-01-09T17:45:10.595Z,100491.05
2019-01-09T17:47:04.582Z,100501.34
2019-01-09T17:48:58.655Z,100499.20
2019-01-09T17:50:53.264Z,100508.66
2019-01-09T17:52:47.654Z,100515.91
2019-01-09T17:54:43.784Z,100515.50
2019-01-09T17:56:37.879Z,100520.66
2019-01-09T17:58:32.085Z,100523.65
2019-01-09T18:00:30.000Z,100527.94
2019-01-09T18:02:24.494Z,100530.96
2019-01-09T18:04:18.472Z,100534.02
2019-01-09T18:06:12.395Z,100533.15
2019-01-09T18:08:10.702Z,100535.73
2019-01-09T18:10:08.100Z,100540.02
2019-01-09T18:12:02.282Z,100544.30
2019-01-09T18:13:59.317Z,100547.75
2019-01-09T18:15:53.345Z,100551.23
2019-01-09T18:17:47.354Z,100555.48
2019-01-09T18:19:41.465Z,100556.36
2019-01-09T18:21:35.681Z,100558.91
2019-01-09T18:23:29.865Z,100561.91
2019-01-09T18:25:26.034Z,100564.45
2019-01-09T18:27:20.115Z,100566.20
2019-01-09T18:29:14.295Z,100570.09
2019-01-09T18:32:05.165Z,100572.64
2019-01-09T18:34:37.624Z,100570.94
2019-01-09T18:37:10.834Z,100585.11
2019-01-09T18:39:57.565Z,100582.56
2019-01-09T18:42:37.655Z,100585.59
2019-01-09T18:45:15.715Z,100583.41
2019-01-09T18:48:15.916Z,100589.02
2019-01-09T18:50:56.243Z,100596.33
2019-01-09T18:53:05.358Z,100599.77
2019-01-09T18:55:01.035Z,100603.20
2019-01-09T18:56:54.922Z,100607.52
2019-01-09T18:58:52.642Z,100608.77
2019-01-09T19:00:49.511Z,100615.22
2019-01-09T19:02:43.564Z,100618.22
2019-01-09T19:04:37.764Z,100612.67
2019-01-09T19:06:35.479Z,100620.83
2019-01-09T19:08:31.377Z,100625.56
2019-01-09T19:10:26.634Z,100625.59
2019-01-09T19:12:20.774Z,100629.46
2019-01-09T19:14:14.865Z,100628.56
2019-01-09T19:16:09.515Z,100639.30
2019-01-09T19:18:03.445Z,100646.58
2019-01-09T19:19:57.454Z,100646.94
2019-01-09T19:21:51.621Z,100644.36
2019-01-09T19:23:45.904Z,100649.55
2019-01-09T19:25:40.153Z,100652.99
2019-01-09T19:27:34.777Z,100655.58
2019-01-09T19:29:29.485Z,100657.31
2019-01-09T19:31:23.458Z,100663.69
2019-01-09T19:33:17.425Z,100659.41
2019-01-09T19:35:13.030Z,100667.14
2019-01-09T19:37:09.545Z,100674.45
2019-01-09T19:39:04.615Z,100674.91
2019-01-09T19:40:59.760Z,100678.78
2019-01-09T19:42:54.234Z,100691.67
2019-01-09T19:44:48.484Z,100686.52
2019-01-09T19:46:42.265Z,100698.53
2019-01-09T19:48:36.573Z,100699.41
2019-01-09T19:50:30.928Z,100695.09
2019-01-09T19:52:25.314Z,100698.53
2019-01-09T19:54:19.591Z,100697.67
2019-01-09T19:56:14.785Z,100696.83
2019-01-09T19:58:08.933Z,100693.41
2019-01-09T20:00:03.229Z,100694.32
2019-01-09T20:01:57.633Z,100697.31
2019-01-09T20:03:52.003Z,100700.28
2019-01-09T20:05:46.319Z,100708.43
2019-01-09T20:07:40.175Z,100707.14
2019-01-09T20:09:35.615Z,100705.89
2019-01-09T20:11:32.195Z,100708.92
2019-01-09T20:13:26.396Z,100714.53
2019-01-09T20:15:24.184Z,100720.56
2019-01-09T20:17:18.684Z,100711.53
2019-01-09T20:19:12.905Z,100719.27
2019-01-09T20:21:09.145Z,100727.91
2019-01-09T20:23:05.448Z,100721.81
2019-01-09T20:24:59.450Z,100730.39
2019-01-09T20:26:54.813Z,100729.47
2019-01-09T20:28:48.855Z,100736.38
2019-01-09T20:30:42.802Z,100733.03
2019-01-09T20:32:37.122Z,100740.32
2019-01-09T20:34:32.603Z,100738.23
2019-01-09T20:36:27.237Z,100742.55
2019-01-09T20:38:22.517Z,100744.68
2019-01-09T20:40:16.415Z,100752.00
2019-01-09T20:42:11.604Z,100749.03
2019-01-09T20:44:05.960Z,100754.61
2019-01-09T20:46:00.414Z,100758.09
2019-01-09T20:47:54.866Z,100755.06
2019-01-09T20:49:52.135Z,100763.26
2019-01-09T20:51:47.598Z,100765.80
2019-01-09T20:53:41.942Z,100760.61
2019-01-09T20:55:36.262Z,100765.27
2019-01-09T20:57:30.335Z,100765.69
2019-01-09T20:59:24.384Z,100763.08
2019-01-09T21:01:21.269Z,100771.30
2019-01-09T21:03:16.038Z,100772.55
2019-01-09T21:05:15.963Z,100764.33
2019-01-09T21:07:10.602Z,100771.64
2019-01-09T21:09:04.666Z,100766.91
2019-01-09T21:10:59.857Z,100766.48
2019-01-09T21:12:53.951Z,100775.47
2019-01-09T21:14:47.942Z,100775.89
2019-01-09T21:16:42.395Z,100783.25
2019-01-09T21:18:37.053Z,100774.26
2019-01-09T21:20:31.652Z,100779.03
2019-01-09T21:22:25.817Z,100782.53
2019-01-09T21:24:19.835Z,100785.52
2019-01-09T21:26:14.624Z,100794.13
2019-01-09T21:28:09.835Z,100792.43
2019-01-09T21:30:03.975Z,100789.02
2019-01-09T21:31:58.465Z,100795.47
2019-01-09T21:33:52.750Z,100799.37
2019-01-09T21:35:48.132Z,100796.30
2019-01-09T21:37:41.994Z,100801.04
2019-01-09T21:39:36.474Z,100802.33
2019-01-09T21:41:30.523Z,100798.00
2019-01-09T21:43:24.926Z,100804.45
2019-01-09T21:45:19.222Z,100803.54
2019-01-09T21:47:14.005Z,100800.58
2019-01-09T21:49:09.673Z,100807.86
2019-01-09T21:51:03.803Z,100807.03
2019-01-09T21:52:59.023Z,100813.48
2019-01-09T21:54:54.622Z,100810.06
2019-01-09T21:56:48.911Z,100813.52
2019-01-09T21:58:43.387Z,100805.81
2019-01-09T22:00:38.325Z,100808.40
2019-01-09T22:02:32.650Z,100813.10
2019-01-09T22:04:26.580Z,100820.80
2019-01-09T22:06:20.514Z,100819.09
2019-01-09T22:08:14.817Z,100816.55
2019-01-09T22:10:15.414Z,100823.45
2019-01-09T22:12:09.688Z,100823.45
2019-01-09T22:14:05.013Z,100825.16
2019-01-09T22:15:58.875Z,100823.45
2019-01-09T22:17:53.042Z,100822.58
2019-01-09T22:19:47.224Z,100824.29
2019-01-09T22:21:41.387Z,100829.45
2019-01-09T22:23:35.125Z,100829.91
2019-01-09T22:25:29.035Z,100829.48
2019-01-09T22:27:22.836Z,100833.77
2019-01-09T22:29:16.744Z,100830.32
2019-01-09T22:31:10.755Z,100836.31
2019-01-09T22:33:04.556Z,100832.90
2019-01-09T22:34:59.721Z,100829.48
2019-01-09T22:36:53.445Z,100832.91
2019-01-09T22:38:48.194Z,100836.35
2019-01-09T22:40:41.757Z,100833.77